Relevés horaires Beauvechain (Belgique)


Relevés horaires à Beauvechain - Mercredi 01 Avr. 2020
Heure UTC1 Température [°C] Vent [km/h] Hum. [%] Pres.4 [hPa] Visi. [Km] Nébu. [octa] Préc.5 [mm] Cond.
2m. Res. Ros. Dir.2 Vit. Moy. Raf.3
23:00 2.8 2.8 -0.3 NNO 1.9 -- 7.4 80 1018.7(-0.5/3h) 20 -- -- --
22:00 2.7 2.7 -0.5 NNO 3.7 -- 9.3 79 1019.2(0.0/3h) 20 -- -- --
21:00 3.3 1.9 -0.4 NNO 5.6 -- 13.0 77 1019.2(0.3/3h) 20 -- -- --
20:00 4.5 3.3 -0.5 NNO 5.6 -- 13.0 70 1019.2(0.0/3h) 20 -- -- --
19:00 5.4 5.4 -1.8 NNO 3.7 -- 9.3 60 1019(-0.3/3h) 20 -- -- --
18:00 8.0 8.0 -4.5 NNO 1.9 -- 9.3 41 1018.6(-1.0/3h) 20 -- -- --
17:00 9.0 9.0 -4.0 N 3.7 -- 9.3 40 1019(-1.4/3h) 20 -- -- --
16:00 9.5 9.5 -4.5 NNO 3.7 -- 9.3 37 1019.2(-1.8/3h) 20 0/8 -- --
15:00 9.4 9.4 -5.1 NNO 1.9 -- 9.3 35 1019.7(-2.0/3h) 20 0/8 -- --
14:00 9.2 9.2 -4.8 NNO 1.9 -- 9.3 37 1020.5(-2.2/3h) 20 0/8 -- --
13:00 8.9 8.9 -3.4 E 3.7 -- 9.3 42 1021.1(-2.5/3h) 20 0/8 -- --
12:00 8.0 8.0 -4.9 NNO 1.9 -- 7.4 40 1021.8(-2.2/3h) 20 0/8 -- --
11:00 7.2 7.2 -4.5 NNO 1.9 -- 7.4 43 1022.8(-1.4/3h) 20 0/8 -- --
10:00 6.6 6.6 -3.5 NE 3.7 -- 5.6 48 1023.7(-0.7/3h) 20 0/8 -- --
09:00 5.0 5.0 -3.9 NNO 1.9 -- 3.7 52 1024.4(-0.3/3h) 20 0/8 -- --
08:00 3.5 3.5 -2.5 NNO 1.9 -- 1.9 65 1024.5(-0.2/3h) 20 0/8 -- --
07:00 -0.1 -0.1 -2.8 NNO 1.9 -- 1.9 82 1024.9(-0.4/3h) 20 0/8 -- --
05:00 -0.7 -0.7 -3.7 NNO 1.9 -- 1.9 80 1025(-1.3/3h) 20 -- -- --
04:00 -0.2 -0.2 -3.7 NNO 0.0 -- 1.9 77 1025.4(-1.4/3h) 20 -- -- --
03:00 0.2 0.2 -4.0 NNO 1.9 -- 3.7 73 1025.7(-1.3/3h) 20 -- -- --
02:00 0.3 0.3 -5.0 NNO 1.9 -- 1.9 67 1026.4(-1.1/3h) 20 -- -- --
01:00 0.8 0.8 -5.7 NNO 1.9 -- 3.7 62 1026.7(-1.0/3h) 20 -- -- --
00:00 1.2 1.2 -5.7 NNO 1.9 -- 7.4 60 1027(-0.9/3h) 20 -- -- --

1 Coordinated Universal Time. Actuellement il est 22:00 locale et 20:00 UTC.

2 Le vent souffle depuis la direction indiquée vers la direction oposée.

3 Les rafales max. sont disponible 40 min après l'heure du relevé.

4 Pour les stations d'altitude (plus de 600m) le géopotentiel du niveau le plus proche de la pression obligatoire est indiqué.

5 Les stations disposant d'un diffuseur peuvent indiquer "trace". Cela signifie que des précipitations ont touchés le sol mais que la quantité est inférieure à 0.1 mm.

Récapitulatif de la journée
Température [°C] Vent [km/h] Ensoleillement4 [h] Precipitations totale5 [mm] Pression [Hpa]
Min1 Max.2 Moy.3 Max. Min Max.
-- 9.9 0 13.0 0 h 0 min 0 1018.6 1027.0

1 Température minimale relevée entre 18:00 UTC la veille et 18:00 UTC le jour donné.

2 Température maximale relevée entre 06:00 UTC le jour donné et 06:00 UTC le lendemain.

3 Vent moyen de la journée basé sur les relevés horaires.

4 Ensoleillement en heures relevé entre 06:00 UTC la veille et 06:00 UTC le jour donné.

5 Précipitations totales tombées entre 06:00 UTC la jour donné et 06:00 UTC le lendemain.

Graphiques horaires